Time;durP1;ratioP1;P1;durP2;ratioP2;P2;SDS_P1;SDS_P2;PMS_P1;PMS_P2;Temp;Humidity;BMP_temperature;BMP_pressure;BME280_temperature;BME280_humidity;BME280_pressure;Samples;Min_cycle;Max_cycle;Signal;HPM_P1;HPM_P2
2023/08/07 00:04:21;;;;;;;;;;;19.50;72.70;;;18.94;62.93;99137.00;10371398;28;1890;-71
2023/08/07 00:09:16;;;;;;;;;;;19.50;72.60;;;18.93;62.80;99121.22;10371442;28;826;-71
2023/08/07 00:14:11;;;;;;;;;;;19.50;72.60;;;18.93;62.82;99130.00;10370890;28;801;-71
2023/08/07 00:19:07;;;;;;;;;;;19.50;72.60;;;18.92;62.82;99128.31;10370554;28;894;-71
2023/08/07 00:24:02;;;;;;;;;;;19.50;72.50;;;18.92;62.98;99125.66;10369901;28;1898;-72
2023/08/07 00:28:58;;;;;;;;;;;19.50;72.60;;;18.91;62.91;99116.03;10370582;28;969;-71
2023/08/07 00:33:55;;;;;;;;;;;19.50;72.50;;;18.92;62.71;99120.38;10369889;28;930;-71
2023/08/07 00:38:50;;;;;;;;;;;19.50;72.40;;;18.91;62.68;99113.38;10369872;28;850;-71
2023/08/07 00:43:45;;;;;;;;;;;19.50;72.40;;;18.92;62.87;99115.09;10368841;28;1967;-71
2023/08/07 00:48:41;;;;;;;;;;;19.50;72.40;;;18.91;62.83;99113.38;10369271;28;881;-71
2023/08/07 00:53:36;;;;;;;;;;;19.50;72.40;;;18.92;62.84;99122.19;10368293;28;865;-71
2023/08/07 00:58:32;;;;;;;;;;;19.50;72.40;;;18.91;62.91;99115.19;10369458;28;1119;-71
2023/08/07 01:03:27;;;;;;;;;;;19.50;72.30;;;18.90;62.82;99122.25;10369674;28;1914;-71
2023/08/07 01:08:22;;;;;;;;;;;19.50;72.40;;;18.90;62.87;99114.34;10367974;28;938;-71
2023/08/07 01:13:18;;;;;;;;;;;19.50;72.30;;;18.89;62.76;99128.50;10368876;28;923;-71
2023/08/07 01:18:13;;;;;;;;;;;19.50;72.30;;;18.90;62.63;99132.81;10368170;28;935;-72
2023/08/07 01:23:09;;;;;;;;;;;19.40;72.20;;;18.88;62.73;99132.06;10368825;28;1961;-71
2023/08/07 01:28:05;;;;;;;;;;;19.40;72.20;;;18.88;62.68;99129.41;10367741;28;949;-71
2023/08/07 01:33:00;;;;;;;;;;;19.40;72.20;;;18.87;62.79;99138.28;10368192;28;775;-71
2023/08/07 01:37:55;;;;;;;;;;;19.40;72.10;;;18.86;62.74;99141.84;10368054;28;861;-71
2023/08/07 01:42:51;;;;;;;;;;;19.40;72.20;;;18.88;62.78;99144.41;10367180;28;1969;-71
2023/08/07 01:47:46;;;;;;;;;;;19.40;72.30;;;18.87;62.63;99133.00;10367097;28;789;-71
2023/08/07 01:52:42;;;;;;;;;;;19.40;72.20;;;18.89;62.64;99146.97;10368173;28;878;-71
2023/08/07 01:57:37;;;;;;;;;;;19.40;72.30;;;18.88;62.77;99141.78;10367167;28;1406;-71
2023/08/07 02:02:32;;;;;;;;;;;19.40;72.20;;;18.87;62.67;99146.22;10366754;28;791;-72
2023/08/07 02:07:28;;;;;;;;;;;19.40;72.20;;;18.86;62.71;99155.06;10366850;28;1977;-71
2023/08/07 02:12:24;;;;;;;;;;;19.40;72.20;;;18.89;62.76;99172.50;10366403;28;823;-71
2023/08/07 02:17:19;;;;;;;;;;;19.40;72.20;;;18.86;62.66;99167.41;10366300;28;793;-71
2023/08/07 02:22:15;;;;;;;;;;;19.40;72.20;;;18.87;62.58;99172.63;10366842;28;815;-71
2023/08/07 02:27:10;;;;;;;;;;;19.40;72.20;;;18.86;62.57;99172.69;10366952;28;1960;-71
2023/08/07 02:32:06;;;;;;;;;;;19.40;72.10;;;18.85;62.59;99171.00;10366332;28;846;-71
2023/08/07 02:37:01;;;;;;;;;;;19.40;72.10;;;18.84;62.65;99175.44;10366625;28;875;-71
2023/08/07 02:41:56;;;;;;;;;;;19.40;72.10;;;18.85;62.62;99181.56;10365828;28;929;-72
2023/08/07 02:46:52;;;;;;;;;;;19.40;72.10;;;18.83;62.89;99179.84;10365125;28;1906;-71
2023/08/07 02:51:47;;;;;;;;;;;19.40;72.00;;;18.83;62.55;99176.34;10365051;28;964;-71
2023/08/07 02:56:43;;;;;;;;;;;19.40;72.10;;;18.83;62.49;99169.28;10366208;28;978;-71
2023/08/07 03:01:38;;;;;;;;;;;19.40;72.00;;;18.85;62.67;99171.84;10366128;28;1318;-71
2023/08/07 03:06:34;;;;;;;;;;;19.40;72.00;;;18.85;62.50;99171.84;10365373;28;1969;-71
2023/08/07 03:11:29;;;;;;;;;;;19.50;72.10;;;18.83;62.51;99163.16;10365253;28;886;-71
2023/08/07 03:16:24;;;;;;;;;;;19.40;72.00;;;18.83;62.55;99166.63;10365264;28;784;-71
2023/08/07 03:21:20;;;;;;;;;;;19.40;72.00;;;18.83;62.59;99166.63;10373474;28;782;-71
2023/08/07 03:26:15;;;;;;;;;;;19.40;72.00;;;18.83;62.47;99171.91;10373070;28;1961;-71
2023/08/07 03:31:11;;;;;;;;;;;19.40;72.00;;;18.82;62.54;99172.03;10372425;28;792;-71
2023/08/07 03:36:06;;;;;;;;;;;19.40;72.00;;;18.82;62.54;99177.31;10372235;28;835;-71
2023/08/07 03:41:01;;;;;;;;;;;19.40;72.00;;;18.81;62.42;99176.47;10372585;28;938;-71
2023/08/07 03:45:57;;;;;;;;;;;19.40;72.00;;;18.81;62.47;99188.78;10371677;28;1963;-72
2023/08/07 03:50:52;;;;;;;;;;;19.30;71.90;;;18.81;62.56;99183.50;10372154;28;908;-71
2023/08/07 03:55:48;;;;;;;;;;;19.40;71.90;;;18.83;62.42;99187.75;10371446;28;869;-71
2023/08/07 04:00:43;;;;;;;;;;;19.40;71.90;;;18.85;62.42;99189.47;10371571;28;1128;-71
2023/08/07 04:05:38;;;;;;;;;;;19.40;71.90;;;18.85;62.50;99186.84;10371616;28;1913;-71
2023/08/07 04:10:34;;;;;;;;;;;19.40;71.80;;;18.85;62.24;99192.97;10371478;28;818;-71
2023/08/07 04:15:29;;;;;;;;;;;19.40;71.80;;;18.85;62.30;99197.41;10371318;28;922;-71
2023/08/07 04:20:24;;;;;;;;;;;19.40;71.80;;;18.87;62.35;99204.31;10369847;28;1015;-72
2023/08/07 04:25:20;;;;;;;;;;;19.40;71.80;;;18.89;62.22;99202.44;10370875;28;1910;-71
2023/08/07 04:30:15;;;;;;;;;;;19.40;71.70;;;18.90;62.18;99209.41;10370528;28;1057;-71
2023/08/07 04:35:11;;;;;;;;;;;19.40;71.60;;;18.90;62.28;99206.75;10369887;28;838;-72
2023/08/07 04:40:08;;;;;;;;;;;19.40;71.50;;;18.90;62.14;99217.34;10369796;28;873;-71
2023/08/07 04:45:03;;;;;;;;;;;19.40;71.60;;;18.90;62.14;99222.63;10369393;28;1902;-71
2023/08/07 04:49:59;;;;;;;;;;;19.40;71.60;;;18.92;62.05;99231.31;10369346;28;940;-71
2023/08/07 04:54:54;;;;;;;;;;;19.40;71.60;;;18.95;62.03;99225.00;10369275;28;838;-69
2023/08/07 04:59:50;;;;;;;;;;;19.50;71.60;;;18.93;62.22;99224.22;10368147;28;1290;-69
2023/08/07 05:04:45;;;;;;;;;;;19.40;71.40;;;18.96;62.13;99224.06;10368589;28;1971;-70
2023/08/07 05:09:41;;;;;;;;;;;19.50;71.40;;;18.99;62.06;99232.66;10368804;28;918;-70
2023/08/07 05:14:36;;;;;;;;;;;19.50;71.30;;;19.00;62.07;99231.72;10368770;28;885;-71
2023/08/07 05:19:32;;;;;;;;;;;19.60;71.30;;;19.01;61.90;99245.78;10368035;28;914;-70
2023/08/07 05:24:27;;;;;;;;;;;19.50;71.30;;;18.98;62.14;99241.50;10367845;28;1918;-70
2023/08/07 05:29:22;;;;;;;;;;;19.50;71.50;;;18.99;61.91;99245.88;10368318;28;866;-70
2023/08/07 05:34:18;;;;;;;;;;;19.50;71.40;;;18.97;62.25;99242.47;10368541;28;826;-70
2023/08/07 05:39:13;;;;;;;;;;;19.50;71.40;;;18.99;62.13;99247.63;10367982;28;866;-69
2023/08/07 05:44:09;;;;;;;;;;;19.50;71.40;;;19.04;62.02;99254.38;10368105;28;1906;-72
2023/08/07 05:49:04;;;;;;;;;;;19.50;71.20;;;19.06;61.95;99251.66;10366580;28;798;-70
2023/08/07 05:54:01;;;;;;;;;;;19.50;71.20;;;19.04;62.00;99258.81;10367494;28;1100;-70
2023/08/07 05:58:56;;;;;;;;;;;19.50;71.30;;;19.02;62.00;99258.91;10367181;28;1345;-70
2023/08/07 06:03:51;;;;;;;;;;;19.50;71.30;;;19.03;62.00;99257.97;10366687;28;1914;-69
2023/08/07 06:08:47;;;;;;;;;;;19.60;71.60;;;19.04;62.16;99251.72;10365838;28;894;-71
2023/08/07 06:13:42;;;;;;;;;;;19.50;71.60;;;19.03;62.09;99257.09;10367170;28;918;-70
2023/08/07 06:18:38;;;;;;;;;;;19.50;71.90;;;19.02;62.11;99258.03;10366025;28;929;-70
2023/08/07 06:23:33;;;;;;;;;;;19.60;72.00;;;19.02;62.30;99271.25;10366202;28;1972;-69
2023/08/07 06:28:29;;;;;;;;;;;19.50;72.00;;;18.98;62.56;99262.63;10366726;28;890;-70
2023/08/07 06:33:24;;;;;;;;;;;19.50;71.90;;;18.97;62.49;99262.75;10366010;28;838;-71
2023/08/07 06:38:20;;;;;;;;;;;19.50;72.10;;;18.96;62.73;99277.72;10365395;28;984;-69
2023/08/07 06:43:15;;;;;;;;;;;19.50;72.30;;;18.97;62.58;99281.22;10365848;28;1975;-72
2023/08/07 06:48:10;;;;;;;;;;;19.50;72.20;;;18.97;62.44;99281.22;10366384;28;826;-71
2023/08/07 06:53:06;;;;;;;;;;;19.50;72.10;;;19.00;62.60;99295.13;10368437;28;834;-71
2023/08/07 06:58:01;;;;;;;;;;;19.50;72.10;;;19.02;62.45;99298.53;10368812;28;1136;-71
2023/08/07 07:02:56;;;;;;;;;;;19.50;72.20;;;19.05;62.35;99300.16;10414494;28;902;-71
2023/08/07 07:07:52;;;;;;;;;;;19.50;72.20;;;19.03;62.57;99302.00;10414604;28;1975;-70
2023/08/07 07:12:48;;;;;;;;;;;19.50;72.60;;;18.94;63.02;99311.31;10414496;28;953;-70
2023/08/07 07:17:43;;;;;;;;;;;19.50;73.10;;;18.94;63.28;99311.31;10402573;28;1128;-70
2023/08/07 07:22:38;;;;;;;;;;;19.50;73.30;;;18.99;63.09;99322.47;10371522;28;969;-71
2023/08/07 07:27:34;;;;;;;;;;;19.50;73.20;;;19.01;62.89;99320.56;10371562;28;1910;-72
2023/08/07 07:32:29;;;;;;;;;;;19.50;73.00;;;19.02;62.85;99332.88;10372294;28;924;-71
2023/08/07 07:37:25;;;;;;;;;;;19.50;72.70;;;19.01;62.89;99331.13;10371968;28;919;-74
2023/08/07 07:42:20;;;;;;;;;;;19.50;72.70;;;19.00;62.94;99339.16;10371193;28;922;-74
2023/08/07 07:47:15;;;;;;;;;;;19.50;72.60;;;19.00;62.72;99345.28;10371829;28;1965;-73
2023/08/07 07:52:11;;;;;;;;;;;19.50;72.60;;;19.00;62.93;99350.56;10371140;28;902;-69
2023/08/07 07:57:06;;;;;;;;;;;19.50;72.60;;;19.00;62.89;99350.56;10372188;28;894;-72
2023/08/07 08:02:02;;;;;;;;;;;19.50;72.70;;;19.02;62.66;99354.00;10371361;28;1145;-73
2023/08/07 08:06:57;;;;;;;;;;;19.50;72.70;;;19.00;62.77;99358.50;10370587;28;1906;-73
2023/08/07 08:11:52;;;;;;;;;;;19.50;72.90;;;19.02;62.95;99371.59;10346522;28;1818;-72
2023/08/07 08:16:48;;;;;;;;;;;19.50;72.90;;;19.03;62.79;99382.09;10364349;28;1158;-73
2023/08/07 08:21:43;;;;;;;;;;;19.50;72.90;;;19.03;62.91;99387.38;10329563;28;843;-73
2023/08/07 08:26:39;;;;;;;;;;;19.50;73.70;;;19.03;62.70;99395.31;10328838;28;1910;-74
2023/08/07 08:31:34;;;;;;;;;;;19.50;72.70;;;19.02;62.67;99396.25;10329515;28;827;-74
2023/08/07 08:36:29;;;;;;;;;;;19.50;72.50;;;19.04;62.56;99407.56;10328661;28;800;-75
2023/08/07 08:41:25;;;;;;;;;;;19.50;72.50;;;19.05;62.69;99406.66;10329460;28;882;-74
2023/08/07 08:46:23;;;;;;;;;;;19.60;72.60;;;19.05;62.55;99414.56;10328381;28;1965;-74
2023/08/07 08:51:18;;;;;;;;;;;19.50;72.60;;;19.04;62.81;99417.28;10328106;28;788;-75
2023/08/07 08:56:14;;;;;;;;;;;19.50;72.60;;;19.04;62.73;99423.41;10327889;28;901;-69
2023/08/07 09:01:09;;;;;;;;;;;19.60;72.70;;;19.04;62.74;99441.06;10328732;28;1390;-73
2023/08/07 09:06:06;;;;;;;;;;;19.50;72.60;;;19.04;62.76;99449.84;10327361;28;1965;-74
2023/08/07 09:11:01;;;;;;;;;;;19.60;72.50;;;19.08;62.38;99453.19;10332924;28;1030;-74
2023/08/07 09:15:57;;;;;;;;;;;19.60;72.40;;;19.10;62.44;99459.25;10357282;28;1096;-72
2023/08/07 09:20:52;;;;;;;;;;;19.60;72.40;;;19.17;62.09;99462.41;10367277;28;968;-72
2023/08/07 09:25:48;;;;;;;;;;;19.60;72.10;;;19.16;62.32;99464.19;10367601;28;1981;-72
2023/08/07 09:30:44;;;;;;;;;;;19.60;72.40;;;19.11;62.40;99481.22;10358684;28;2148;-76
2023/08/07 09:35:39;;;;;;;;;;;19.60;72.40;;;19.12;62.37;99482.91;10351301;28;837;-74
2023/08/07 09:40:35;;;;;;;;;;;19.60;72.40;;;19.11;62.38;99490.00;10367192;28;835;-72
2023/08/07 09:45:31;;;;;;;;;;;19.60;72.30;;;19.15;62.22;99485.41;10367205;28;1976;-74
2023/08/07 09:50:26;;;;;;;;;;;19.60;72.20;;;19.17;62.25;99497.59;10366943;28;827;-74
2023/08/07 09:55:24;;;;;;;;;;;19.60;72.30;;;19.19;62.36;99503.66;10367317;28;857;-74
2023/08/07 10:00:19;;;;;;;;;;;19.70;72.40;;;19.22;62.34;99507.94;10363691;28;1128;-73
2023/08/07 10:05:15;;;;;;;;;;;19.70;72.40;;;19.19;62.36;99510.75;10365751;28;1914;-77
2023/08/07 10:10:10;;;;;;;;;;;19.60;72.70;;;19.14;62.39;99513.63;10367640;28;913;-77
2023/08/07 10:15:06;;;;;;;;;;;19.60;72.60;;;19.11;62.59;99516.41;10366378;28;965;-76
2023/08/07 10:20:02;;;;;;;;;;;19.60;72.50;;;19.08;62.50;99521.88;10366390;28;924;-77
2023/08/07 10:24:57;;;;;;;;;;;19.60;72.40;;;19.14;62.18;99521.53;10365693;28;1909;-78
2023/08/07 10:29:53;;;;;;;;;;;19.60;72.20;;;19.13;62.16;99525.13;10379320;28;925;-72
2023/08/07 10:34:48;;;;;;;;;;;19.60;72.30;;;19.16;62.35;99522.31;10379744;28;957;-74
2023/08/07 10:39:43;;;;;;;;;;;19.60;72.30;;;19.15;62.33;99519.75;10379534;28;766;-74
2023/08/07 10:44:39;;;;;;;;;;;19.60;72.40;;;19.14;62.43;99536.53;10379511;28;1973;-74
2023/08/07 10:49:34;;;;;;;;;;;19.60;72.30;;;19.16;62.41;99534.69;10380171;28;865;-75
2023/08/07 10:54:29;;;;;;;;;;;19.60;72.40;;;19.19;62.49;99542.44;10379499;28;872;-74
2023/08/07 10:59:25;;;;;;;;;;;19.70;72.40;;;19.24;62.22;99554.47;10378961;28;1195;-76
2023/08/07 11:04:20;;;;;;;;;;;19.70;72.60;;;19.27;62.39;99543.72;10379232;28;1913;-76
2023/08/07 11:09:16;;;;;;;;;;;19.70;72.70;;;19.28;62.47;99547.22;10378420;28;1755;-76
2023/08/07 11:14:11;;;;;;;;;;;19.70;72.70;;;19.29;62.62;99553.38;10377485;28;904;-76
2023/08/07 11:19:07;;;;;;;;;;;19.70;72.80;;;19.31;62.34;99548.84;10378810;28;871;-76
2023/08/07 11:24:02;;;;;;;;;;;19.70;72.80;;;19.34;62.41;99546.94;10379513;28;1971;-76
2023/08/07 11:28:57;;;;;;;;;;;19.70;72.90;;;19.31;62.61;99549.72;10378593;28;862;-76
2023/08/07 11:33:53;;;;;;;;;;;19.70;73.00;;;19.33;62.53;99555.78;10378738;28;862;-75
2023/08/07 11:38:49;;;;;;;;;;;19.70;72.90;;;19.36;62.53;99560.91;10375763;28;932;-76
2023/08/07 11:43:44;;;;;;;;;;;19.70;73.00;;;19.42;62.34;99557.09;10373131;28;1913;-72
2023/08/07 11:48:39;;;;;;;;;;;19.80;72.90;;;19.48;62.20;99556.75;10371310;28;843;-72
2023/08/07 11:53:35;;;;;;;;;;;19.80;73.20;;;19.48;62.53;99557.59;10372433;28;846;-73
2023/08/07 11:58:30;;;;;;;;;;;19.90;73.30;;;19.51;62.41;99553.09;10371287;28;1180;-73
2023/08/07 12:03:29;;;;;;;;;;;19.90;73.40;;;19.50;62.52;99554.88;10371837;28;1918;-73
2023/08/07 12:08:24;;;;;;;;;;;19.90;73.70;;;19.52;62.76;99557.44;10367400;28;1101;-73
2023/08/07 12:13:19;;;;;;;;;;;19.90;74.00;;;19.54;62.96;99563.50;10370070;28;961;-73
2023/08/07 12:18:15;;;;;;;;;;;19.90;74.30;;;19.52;63.22;99562.72;10369932;28;868;-74
2023/08/07 12:23:10;;;;;;;;;;;19.90;74.60;;;19.49;63.63;99576.97;10369612;28;914;-72
2023/08/07 12:28:06;;;;;;;;;;;19.90;74.90;;;19.57;63.31;99587.13;10369863;28;1965;-71
2023/08/07 12:33:04;;;;;;;;;;;19.90;74.60;;;19.58;63.18;99586.22;10369205;28;956;-73
2023/08/07 12:37:59;;;;;;;;;;;19.90;74.60;;;19.58;63.84;99581.78;10369302;28;873;-72
2023/08/07 12:42:55;;;;;;;;;;;20.00;75.50;;;19.58;63.80;99588.84;10370070;28;845;-72
2023/08/07 12:47:50;;;;;;;;;;;19.90;75.50;;;19.54;63.88;99582.00;10368617;28;1902;-71
2023/08/07 12:52:46;;;;;;;;;;;19.90;75.30;;;19.47;63.71;99587.63;10367866;28;851;-72
2023/08/07 12:57:42;;;;;;;;;;;19.90;74.40;;;19.43;63.76;99591.34;10368034;28;1351;-72
2023/08/07 13:02:37;;;;;;;;;;;19.90;75.00;;;19.44;63.79;99593.09;10368330;28;862;-72
2023/08/07 13:07:33;;;;;;;;;;;19.90;75.00;;;19.44;63.76;99601.00;10367987;28;1906;-71
2023/08/07 13:12:28;;;;;;;;;;;19.90;75.00;;;19.49;63.39;99601.63;10367186;28;930;-71
2023/08/07 13:17:23;;;;;;;;;;;19.90;75.00;;;19.56;63.33;99620.66;10367736;28;862;-71
2023/08/07 13:22:19;;;;;;;;;;;19.90;74.80;;;19.53;63.28;99607.59;10367813;28;826;-71
2023/08/07 13:27:14;;;;;;;;;;;19.90;74.60;;;19.55;62.98;99610.16;10367151;28;1898;-71
2023/08/07 13:32:10;;;;;;;;;;;19.90;74.30;;;19.55;63.12;99610.16;10367605;28;846;-70
2023/08/07 13:37:07;;;;;;;;;;;19.90;74.20;;;19.61;62.83;99596.63;10366999;28;854;-72
2023/08/07 13:42:02;;;;;;;;;;;20.00;74.00;;;19.55;62.89;99604.88;10367360;28;929;-71
2023/08/07 13:46:57;;;;;;;;;;;19.90;73.70;;;19.55;62.83;99600.44;10366473;28;1961;-71
2023/08/07 13:51:53;;;;;;;;;;;19.90;73.90;;;19.53;62.88;99619.97;10365761;28;902;-71
2023/08/07 13:56:48;;;;;;;;;;;19.90;73.60;;;19.57;62.71;99626.78;10366075;28;953;-73
2023/08/07 14:01:44;;;;;;;;;;;19.90;73.40;;;19.66;62.41;99627.19;10364929;28;1130;-71
2023/08/07 14:06:39;;;;;;;;;;;20.00;73.70;;;19.72;62.40;99633.94;10365330;28;1910;-71
2023/08/07 14:11:34;;;;;;;;;;;20.00;73.80;;;19.61;62.86;99642.41;10365767;28;864;-71
2023/08/07 14:16:31;;;;;;;;;;;20.00;73.80;;;19.59;62.76;99636.34;10366137;28;976;-71
2023/08/07 14:21:26;;;;;;;;;;;20.00;74.00;;;19.69;62.77;99639.41;10366363;28;1677;-71
2023/08/07 14:26:22;;;;;;;;;;;20.00;74.00;;;19.57;63.02;99645.28;10365562;28;1998;-71
2023/08/07 14:31:17;;;;;;;;;;;20.00;74.30;;;19.54;63.40;99678.03;10366471;28;838;-72
2023/08/07 14:36:14;;;;;;;;;;;20.00;74.30;;;19.51;63.47;99680.84;10366080;28;887;-70
2023/08/07 14:41:10;;;;;;;;;;;20.00;74.40;;;19.48;63.32;99679.19;10365640;28;925;-70
2023/08/07 14:46:05;;;;;;;;;;;19.90;74.20;;;19.48;63.55;99683.66;10364174;28;1898;-68
2023/08/07 14:51:01;;;;;;;;;;;19.90;74.20;;;19.49;63.38;99687.97;10323167;28;858;-69
2023/08/07 14:55:56;;;;;;;;;;;20.00;74.40;;;19.56;63.22;99694.66;10323879;28;903;-71
2023/08/07 15:00:52;;;;;;;;;;;19.90;74.30;;;19.90;62.40;99688.50;10323049;28;1475;-71
2023/08/07 15:05:47;;;;;;;;;;;20.10;74.20;;;20.10;61.64;99690.09;10323945;28;1909;-73
2023/08/07 15:10:42;;;;;;;;;;;20.20;73.70;;;20.07;61.51;99681.47;10324913;28;893;-71
2023/08/07 15:15:38;;;;;;;;;;;20.20;73.20;;;19.95;61.87;99679.50;10329984;28;909;-71
2023/08/07 15:20:33;;;;;;;;;;;20.20;73.20;;;19.76;62.61;99687.53;10332264;28;958;-70
2023/08/07 15:25:29;;;;;;;;;;;20.20;73.50;;;19.72;62.72;99697.41;10331996;28;1969;-71
2023/08/07 15:30:24;;;;;;;;;;;20.10;73.50;;;19.67;62.95;99691.50;10330790;28;909;-71
2023/08/07 15:35:19;;;;;;;;;;;20.10;73.60;;;20.13;61.47;99691.72;10330647;28;922;-71
2023/08/07 15:40:15;;;;;;;;;;;20.20;73.50;;;19.93;62.13;99690.97;10331097;28;1011;-71
2023/08/07 15:45:10;;;;;;;;;;;20.20;73.30;;;19.77;62.49;99682.16;10331042;28;1957;-71
2023/08/07 15:50:06;;;;;;;;;;;20.20;73.30;;;19.73;62.70;99683.28;10330030;28;906;-71
2023/08/07 15:55:01;;;;;;;;;;;20.10;73.50;;;19.72;62.77;99675.41;10329917;28;943;-71
2023/08/07 15:59:57;;;;;;;;;;;20.10;73.50;;;19.72;62.71;99675.41;10330430;28;1321;-71
2023/08/07 16:04:52;;;;;;;;;;;20.10;73.40;;;19.68;62.82;99675.56;10330597;28;1909;-71
2023/08/07 16:09:48;;;;;;;;;;;20.10;73.60;;;19.66;62.91;99676.56;10329862;28;909;-70
2023/08/07 16:14:43;;;;;;;;;;;20.10;73.70;;;19.62;63.04;99685.56;10329984;28;957;-70
2023/08/07 16:19:38;;;;;;;;;;;20.10;73.50;;;19.62;62.84;99682.91;10330122;28;879;-72
2023/08/07 16:24:34;;;;;;;;;;;20.10;73.50;;;19.62;62.67;99680.28;10330095;28;1910;-70
2023/08/07 16:29:29;;;;;;;;;;;20.10;73.60;;;19.62;62.75;99683.81;10329612;28;959;-70
2023/08/07 16:34:25;;;;;;;;;;;20.10;73.50;;;19.61;62.73;99690.00;10329010;28;898;-71
2023/08/07 16:39:20;;;;;;;;;;;20.00;73.40;;;19.60;62.76;99679.53;10320143;28;919;-71
2023/08/07 16:44:15;;;;;;;;;;;20.10;73.30;;;19.56;62.75;99683.25;10329033;28;1910;-71
2023/08/07 16:49:11;;;;;;;;;;;20.00;73.10;;;19.58;62.76;99695.47;10328944;28;893;-71
2023/08/07 16:54:06;;;;;;;;;;;20.00;73.20;;;19.61;62.66;99694.44;10328764;28;751;-71
2023/08/07 16:59:01;;;;;;;;;;;20.00;73.10;;;19.63;62.57;99688.16;10328191;28;1201;-72
2023/08/07 17:03:57;;;;;;;;;;;20.00;73.30;;;19.63;62.52;99687.28;10327621;28;1971;-72
2023/08/07 17:08:52;;;;;;;;;;;20.00;73.10;;;19.62;62.51;99693.50;10327535;28;866;-73
2023/08/07 17:13:48;;;;;;;;;;;20.10;73.10;;;19.60;62.61;99688.31;10327936;28;795;-72
2023/08/07 17:18:43;;;;;;;;;;;20.10;73.30;;;19.59;62.78;99691.00;10326487;28;1163;-72
2023/08/07 17:23:38;;;;;;;;;;;20.00;73.30;;;19.58;62.83;99698.09;10327597;28;1902;-73
2023/08/07 17:28:34;;;;;;;;;;;20.00;73.30;;;19.58;62.72;99695.47;10326159;28;1052;-71
2023/08/07 17:33:29;;;;;;;;;;;20.10;73.50;;;19.59;62.93;99699.78;10327217;28;905;-71
2023/08/07 17:38:25;;;;;;;;;;;20.10;73.50;;;19.61;62.71;99705.03;10326351;28;867;-73
2023/08/07 17:43:20;;;;;;;;;;;20.10;73.40;;;19.61;62.63;99705.88;10326271;28;889;-73
2023/08/07 17:48:15;;;;;;;;;;;20.00;73.40;;;19.61;62.66;99695.28;10326062;28;1913;-73
2023/08/07 17:53:11;;;;;;;;;;;20.00;73.30;;;19.59;62.60;99689.22;10325911;28;907;-72
2023/08/07 17:58:06;;;;;;;;;;;20.10;73.50;;;19.56;62.89;99681.44;10325867;28;1380;-72
2023/08/07 18:03:03;;;;;;;;;;;20.10;73.50;;;19.56;62.99;99692.03;10326276;28;807;-71
2023/08/07 18:08:00;;;;;;;;;;;20.00;73.40;;;19.57;62.95;99692.88;10326148;28;1981;-72
2023/08/07 18:12:56;;;;;;;;;;;20.00;73.50;;;19.57;62.96;99704.34;10324953;28;799;-72
2023/08/07 18:17:51;;;;;;;;;;;20.00;73.50;;;19.59;62.96;99704.25;10325908;28;871;-73
2023/08/07 18:22:46;;;;;;;;;;;20.00;73.60;;;19.58;62.98;99705.19;10324712;28;835;-73
2023/08/07 18:27:42;;;;;;;;;;;20.10;73.70;;;19.58;63.01;99707.81;10325148;28;1968;-72
2023/08/07 18:32:37;;;;;;;;;;;20.10;73.60;;;19.58;63.04;99705.19;10325157;28;935;-72
2023/08/07 18:37:33;;;;;;;;;;;20.10;73.70;;;19.60;62.89;99703.31;10325674;28;795;-71
2023/08/07 18:42:28;;;;;;;;;;;20.10;73.70;;;19.64;62.85;99705.72;10322449;28;1161;-73
2023/08/07 18:47:24;;;;;;;;;;;20.10;73.80;;;19.63;62.66;99697.88;10326092;28;1914;-71
2023/08/07 18:52:19;;;;;;;;;;;20.10;73.50;;;19.61;62.92;99702.38;10331636;28;977;-73
2023/08/07 18:57:14;;;;;;;;;;;20.10;73.40;;;19.62;62.84;99698.78;10332328;28;1160;-73
2023/08/07 19:02:10;;;;;;;;;;;20.10;73.50;;;19.59;62.92;99704.25;10371124;28;922;-72
2023/08/07 19:07:05;;;;;;;;;;;20.10;73.50;;;19.58;63.03;99700.75;10373996;28;1993;-72
2023/08/07 19:12:01;;;;;;;;;;;20.10;73.60;;;19.59;63.02;99720.09;10372699;28;862;-72
2023/08/07 19:16:57;;;;;;;;;;;20.10;73.60;;;19.58;62.94;99715.75;10373652;28;933;-72
2023/08/07 19:21:52;;;;;;;;;;;20.10;73.60;;;19.60;63.01;99720.03;10372364;28;818;-72
2023/08/07 19:26:48;;;;;;;;;;;20.10;73.50;;;19.59;63.00;99712.16;10372732;28;1918;-72
2023/08/07 19:31:43;;;;;;;;;;;20.10;73.40;;;19.59;62.82;99720.94;10372934;28;857;-72
2023/08/07 19:36:38;;;;;;;;;;;20.10;73.30;;;19.59;62.75;99722.75;10372142;28;774;-72
2023/08/07 19:41:35;;;;;;;;;;;20.10;73.40;;;19.57;62.73;99725.50;10371605;28;823;-73
2023/08/07 19:46:33;;;;;;;;;;;20.10;73.20;;;19.54;62.79;99719.47;10370386;28;1910;-72
2023/08/07 19:51:28;;;;;;;;;;;20.10;73.10;;;19.53;62.68;99712.50;10370652;28;862;-73
2023/08/07 19:56:23;;;;;;;;;;;20.10;72.80;;;19.53;62.86;99717.78;10370549;28;925;-71
2023/08/07 20:01:19;;;;;;;;;;;20.10;72.90;;;19.54;62.51;99714.19;10369817;28;1282;-71
2023/08/07 20:06:14;;;;;;;;;;;20.00;72.70;;;19.57;62.36;99706.09;10371178;28;1913;-71
2023/08/07 20:11:10;;;;;;;;;;;20.10;72.60;;;19.58;62.56;99707.81;10370705;28;774;-72
2023/08/07 20:16:06;;;;;;;;;;;20.10;72.60;;;19.57;62.33;99706.97;10370082;28;882;-72
2023/08/07 20:21:01;;;;;;;;;;;20.10;72.50;;;19.56;62.35;99699.97;10370683;28;938;-70
2023/08/07 20:25:57;;;;;;;;;;;20.10;72.40;;;19.56;62.39;99705.25;10370497;28;1993;-72
2023/08/07 20:30:52;;;;;;;;;;;20.10;72.40;;;19.56;62.56;99699.97;10370702;28;942;-72
2023/08/07 20:35:48;;;;;;;;;;;20.10;72.50;;;19.56;62.46;99704.41;10370359;28;930;-72
2023/08/07 20:40:43;;;;;;;;;;;20.10;72.60;;;19.56;62.49;99696.47;10369375;28;929;-71
2023/08/07 20:45:39;;;;;;;;;;;20.10;72.60;;;19.57;62.38;99692.88;10369277;28;1922;-73
2023/08/07 20:50:34;;;;;;;;;;;20.10;72.70;;;19.56;62.47;99696.47;10370205;28;870;-71
2023/08/07 20:55:30;;;;;;;;;;;20.10;72.60;;;19.55;62.50;99694.78;10369870;28;800;-72
2023/08/07 21:00:25;;;;;;;;;;;20.10;72.50;;;19.54;62.70;99695.69;10370415;28;1130;-72
2023/08/07 21:05:21;;;;;;;;;;;20.10;72.40;;;19.53;62.46;99692.19;10368238;28;1909;-71
2023/08/07 21:10:16;;;;;;;;;;;20.00;72.30;;;19.52;62.39;99684.31;10368502;28;869;-71
2023/08/07 21:15:12;;;;;;;;;;;20.00;72.10;;;19.50;62.35;99679.13;10369357;28;798;-71
2023/08/07 21:20:07;;;;;;;;;;;20.00;72.10;;;19.49;62.60;99669.47;10368447;28;878;-71
2023/08/07 21:25:03;;;;;;;;;;;20.00;72.20;;;19.51;62.19;99672.91;10368790;28;1901;-72
2023/08/07 21:29:58;;;;;;;;;;;20.00;72.10;;;19.49;62.08;99675.66;10368628;28;862;-72
2023/08/07 21:34:53;;;;;;;;;;;20.00;72.00;;;19.47;62.40;99674.00;10367903;28;858;-71
2023/08/07 21:39:49;;;;;;;;;;;20.00;72.00;;;19.46;62.29;99659.06;10368241;28;878;-72
2023/08/07 21:44:44;;;;;;;;;;;20.00;71.80;;;19.44;62.25;99658.28;10367504;28;1914;-72
2023/08/07 21:49:40;;;;;;;;;;;20.00;71.70;;;19.43;62.13;99660.06;10368650;28;863;-71
2023/08/07 21:54:36;;;;;;;;;;;20.00;71.70;;;19.41;62.31;99654.03;10367062;28;834;-73
2023/08/07 21:59:31;;;;;;;;;;;20.00;71.70;;;19.41;62.15;99648.75;10367005;28;1102;-72
2023/08/07 22:04:27;;;;;;;;;;;19.90;71.60;;;19.41;62.14;99653.16;10366842;28;1918;-72
2023/08/07 22:09:24;;;;;;;;;;;20.00;71.70;;;19.40;62.07;99646.19;10366198;28;917;-72
2023/08/07 22:14:19;;;;;;;;;;;20.00;71.70;;;19.39;62.12;99647.97;10367238;28;858;-72
2023/08/07 22:19:15;;;;;;;;;;;19.90;71.50;;;19.40;62.04;99649.66;10367063;28;803;-72
2023/08/07 22:24:10;;;;;;;;;;;19.90;71.50;;;19.40;61.98;99647.03;10365411;28;1972;-72
2023/08/07 22:29:05;;;;;;;;;;;20.00;71.50;;;19.40;61.92;99643.53;10365690;28;1033;-72
2023/08/07 22:34:01;;;;;;;;;;;20.00;71.50;;;19.40;62.02;99648.81;10366212;28;834;-72
2023/08/07 22:38:56;;;;;;;;;;;19.90;71.40;;;19.39;61.93;99640.03;10366572;28;835;-72
2023/08/07 22:43:52;;;;;;;;;;;19.90;71.30;;;19.38;62.02;99646.25;10366326;28;1976;-72
2023/08/07 22:48:47;;;;;;;;;;;19.90;71.30;;;19.38;61.93;99648.88;10365933;28;784;-72